createdAt,value
2019-04-04T00:01:29.739Z,50.20
2019-04-04T00:04:08.336Z,50.20
2019-04-04T00:06:48.556Z,50.10
2019-04-04T00:12:14.267Z,50.30
2019-04-04T00:14:45.638Z,50.20
2019-04-04T00:17:18.591Z,50.40
2019-04-04T00:19:50.342Z,50.30
2019-04-04T00:22:23.563Z,50.30
2019-04-04T00:24:55.898Z,50.40
2019-04-04T00:27:26.761Z,50.50
2019-04-04T00:30:00.639Z,50.40
2019-04-04T00:32:34.537Z,50.40
2019-04-04T00:35:09.690Z,50.60
2019-04-04T00:37:41.134Z,50.80
2019-04-04T00:40:13.686Z,50.90
2019-04-04T00:42:47.788Z,50.70
2019-04-04T00:45:23.148Z,50.80
2019-04-04T00:47:56.343Z,50.90
2019-04-04T00:50:28.662Z,51.00
2019-04-04T00:52:59.596Z,50.90
2019-04-04T00:55:33.757Z,51.00
2019-04-04T00:58:12.075Z,51.00
2019-04-04T01:00:47.207Z,51.10
2019-04-04T01:03:19.161Z,51.30
2019-04-04T01:05:51.904Z,51.40
2019-04-04T01:08:25.601Z,51.50
2019-04-04T01:11:00.346Z,51.50
2019-04-04T01:13:31.331Z,51.50
2019-04-04T01:16:11.175Z,51.60
2019-04-04T01:18:41.058Z,51.60
2019-04-04T01:21:17.591Z,52.20
2019-04-04T01:23:50.800Z,51.50
2019-04-04T01:26:21.549Z,51.70
2019-04-04T01:28:53.414Z,51.70
2019-04-04T01:31:29.077Z,51.80
2019-04-04T01:34:06.207Z,51.90
2019-04-04T01:36:36.540Z,52.00
2019-04-04T01:39:16.959Z,52.00
2019-04-04T01:41:49.711Z,52.10
2019-04-04T01:44:23.738Z,52.20
2019-04-04T01:46:58.244Z,52.30
2019-04-04T01:49:34.304Z,52.30
2019-04-04T01:52:06.986Z,52.40
2019-04-04T01:54:41.027Z,52.50
2019-04-04T01:57:21.764Z,52.60
2019-04-04T01:59:55.354Z,52.70
2019-04-04T02:02:29.313Z,52.70
2019-04-04T02:05:06.887Z,52.90
2019-04-04T02:07:49.321Z,53.40
2019-04-04T02:10:31.245Z,53.30
2019-04-04T02:13:04.994Z,53.40
2019-04-04T02:15:37.022Z,53.40
2019-04-04T02:18:08.094Z,53.50
2019-04-04T02:20:38.025Z,53.40
2019-04-04T02:23:12.736Z,53.70
2019-04-04T02:25:45.378Z,53.50
2019-04-04T02:28:25.273Z,53.60
2019-04-04T02:30:57.489Z,53.80
2019-04-04T02:33:32.159Z,53.90
2019-04-04T02:36:05.548Z,54.00
2019-04-04T02:38:37.121Z,54.10
2019-04-04T02:41:08.619Z,54.20
2019-04-04T02:43:39.481Z,54.30
2019-04-04T02:46:12.386Z,54.40
2019-04-04T02:48:43.431Z,54.30
2019-04-04T02:51:15.603Z,54.30
2019-04-04T02:53:51.840Z,54.20
2019-04-04T02:56:19.638Z,54.40
2019-04-04T02:58:49.890Z,54.40
2019-04-04T03:01:21.320Z,54.40
2019-04-04T03:03:53.754Z,54.50
2019-04-04T03:06:27.722Z,54.50
2019-04-04T03:08:58.770Z,54.40
2019-04-04T03:11:29.762Z,54.50
2019-04-04T03:14:03.332Z,54.60
2019-04-04T03:16:36.595Z,54.60
2019-04-04T03:19:09.941Z,54.40
2019-04-04T03:21:39.217Z,54.50
2019-04-04T03:24:13.807Z,54.40
2019-04-04T03:26:45.249Z,54.50
2019-04-04T03:29:19.026Z,54.50
2019-04-04T03:31:52.664Z,54.30
2019-04-04T03:34:22.931Z,54.40
2019-04-04T03:36:53.589Z,54.50
2019-04-04T03:39:28.788Z,54.60
2019-04-04T03:42:00.428Z,55.00
2019-04-04T03:44:34.424Z,55.10
2019-04-04T03:47:04.914Z,55.10
2019-04-04T03:49:35.263Z,55.20
2019-04-04T03:52:11.347Z,55.30
2019-04-04T03:54:43.311Z,55.40
2019-04-04T03:57:16.979Z,55.60
2019-04-04T03:59:52.219Z,55.70
2019-04-04T04:02:23.870Z,55.80
2019-04-04T04:05:00.934Z,55.90
2019-04-04T04:07:32.080Z,56.10
2019-04-04T04:10:08.499Z,56.40
2019-04-04T04:12:42.674Z,56.60
2019-04-04T04:15:13.517Z,56.70
2019-04-04T04:17:47.137Z,56.80
2019-04-04T04:20:19.275Z,56.90
2019-04-04T04:22:51.492Z,57.10
2019-04-04T04:25:21.644Z,57.30
2019-04-04T04:27:57.542Z,57.30
2019-04-04T04:30:39.422Z,57.20
2019-04-04T04:33:08.400Z,57.40
2019-04-04T04:35:45.840Z,57.50
2019-04-04T04:38:20.146Z,57.60
2019-04-04T04:40:53.477Z,57.70
2019-04-04T04:43:26.494Z,57.60
2019-04-04T04:46:01.458Z,57.60
2019-04-04T04:48:38.455Z,57.50
2019-04-04T04:51:11.839Z,57.60
2019-04-04T04:53:44.362Z,57.80
2019-04-04T04:56:17.386Z,57.90
2019-04-04T04:58:50.222Z,58.10
2019-04-04T05:01:25.610Z,58.10
2019-04-04T05:03:57.575Z,57.90
2019-04-04T05:06:29.289Z,58.00
2019-04-04T05:08:59.654Z,57.90
2019-04-04T05:11:38.586Z,57.70
2019-04-04T05:14:15.270Z,57.60
2019-04-04T05:16:51.031Z,57.60
2019-04-04T05:19:26.070Z,57.40
2019-04-04T05:22:03.312Z,57.30
2019-04-04T05:24:43.158Z,57.50
2019-04-04T05:27:19.767Z,57.40
2019-04-04T05:30:20.158Z,57.60
2019-04-04T05:32:51.973Z,57.50
2019-04-04T05:35:24.493Z,57.40
2019-04-04T05:38:07.627Z,57.30
2019-04-04T05:40:39.792Z,56.90
2019-04-04T05:43:11.132Z,56.70
2019-04-04T05:45:45.289Z,57.00
2019-04-04T05:48:15.567Z,57.00
2019-04-04T05:50:49.287Z,56.90
2019-04-04T05:53:23.606Z,56.90
2019-04-04T05:56:14.819Z,56.80
2019-04-04T05:59:00.490Z,56.70
2019-04-04T06:01:34.859Z,56.50
2019-04-04T06:04:05.908Z,56.30
2019-04-04T06:06:41.306Z,55.90
2019-04-04T06:09:15.904Z,56.20
2019-04-04T06:11:53.818Z,56.40
2019-04-04T06:14:32.574Z,56.50
2019-04-04T06:17:07.173Z,56.10
2019-04-04T06:19:44.370Z,56.10
2019-04-04T06:22:16.591Z,56.10
2019-04-04T06:24:52.810Z,55.80
2019-04-04T06:27:25.778Z,56.00
2019-04-04T06:30:11.183Z,55.50
2019-04-04T06:32:43.324Z,55.70
2019-04-04T06:35:19.809Z,55.40
2019-04-04T06:37:56.181Z,55.20
2019-04-04T06:40:36.697Z,54.60
2019-04-04T06:43:10.336Z,53.90
2019-04-04T06:45:41.144Z,52.50
2019-04-04T06:51:04.691Z,50.40
2019-04-04T06:53:53.631Z,50.10
2019-04-04T06:56:36.273Z,49.10
2019-04-04T07:02:33.179Z,47.80
2019-04-04T07:05:01.270Z,47.40
2019-04-04T07:07:43.101Z,47.40
2019-04-04T07:10:13.635Z,46.70
2019-04-04T07:12:49.130Z,46.60
2019-04-04T07:15:46.078Z,46.70
2019-04-04T07:18:10.186Z,45.80
2019-04-04T07:20:48.409Z,45.20
2019-04-04T07:23:19.339Z,45.30
2019-04-04T07:25:54.079Z,45.30
2019-04-04T07:28:30.617Z,45.40
2019-04-04T07:31:03.021Z,44.70
2019-04-04T07:33:33.018Z,44.60
2019-04-04T07:44:54.757Z,43.60
2019-04-04T07:50:12.102Z,44.20
2019-04-04T07:52:43.591Z,43.40
2019-04-04T07:55:27.498Z,43.30
2019-04-04T07:57:59.299Z,43.00
2019-04-04T08:00:32.443Z,42.90
2019-04-04T08:03:04.597Z,43.30
2019-04-04T08:05:34.417Z,41.90
2019-04-04T08:08:06.870Z,42.00
2019-04-04T08:10:40.447Z,42.90
2019-04-04T08:13:16.241Z,41.90
2019-04-04T08:15:49.637Z,42.60
2019-04-04T08:18:23.025Z,41.70
2019-04-04T08:20:53.874Z,40.70
2019-04-04T08:23:23.721Z,41.50
2019-04-04T08:25:55.236Z,41.10
2019-04-04T08:28:28.707Z,40.20
2019-04-04T08:31:01.519Z,41.50
2019-04-04T08:33:31.829Z,40.90
2019-04-04T08:36:06.322Z,40.50
2019-04-04T08:38:33.726Z,40.70
2019-04-04T08:41:05.671Z,40.10
2019-04-04T08:43:37.698Z,39.90
2019-04-04T08:46:07.749Z,39.80
2019-04-04T08:48:45.753Z,40.00
2019-04-04T08:51:23.102Z,39.90
2019-04-04T08:53:54.181Z,39.70
2019-04-04T08:56:27.746Z,39.80
2019-04-04T08:59:02.366Z,39.20
2019-04-04T09:01:39.639Z,38.90
2019-04-04T09:04:10.643Z,39.20
2019-04-04T09:06:47.023Z,39.50
2019-04-04T09:09:17.120Z,38.60
2019-04-04T09:11:52.169Z,38.60
2019-04-04T09:14:28.190Z,38.10
2019-04-04T09:16:58.984Z,38.10
2019-04-04T09:19:29.680Z,38.50
2019-04-04T09:22:03.817Z,38.20
2019-04-04T09:24:36.292Z,37.80
2019-04-04T09:27:09.242Z,37.60
2019-04-04T09:30:02.533Z,37.70
2019-04-04T09:32:34.097Z,37.40
2019-04-04T09:35:10.200Z,37.20
2019-04-04T09:37:42.898Z,37.70
2019-04-04T09:40:17.236Z,37.80
2019-04-04T09:42:50.840Z,38.10
2019-04-04T09:45:27.098Z,38.40
2019-04-04T09:48:02.839Z,38.30
2019-04-04T09:50:34.434Z,39.20
2019-04-04T09:53:11.756Z,38.50
2019-04-04T09:55:52.813Z,39.10
2019-04-04T09:58:26.933Z,38.80
2019-04-04T10:01:06.453Z,38.70
2019-04-04T10:03:37.198Z,38.00
2019-04-04T10:06:10.312Z,38.10
2019-04-04T10:08:55.546Z,38.50
2019-04-04T10:11:27.836Z,37.70
2019-04-04T10:14:00.208Z,37.40
2019-04-04T10:16:32.904Z,37.30
2019-04-04T10:19:06.168Z,36.60
2019-04-04T10:21:43.104Z,37.10
2019-04-04T10:24:22.773Z,36.80
2019-04-04T10:26:58.570Z,36.60
2019-04-04T10:29:33.339Z,36.70
2019-04-04T10:32:17.947Z,36.50
2019-04-04T10:34:52.616Z,36.80
2019-04-04T10:37:23.887Z,36.40
2019-04-04T10:39:53.880Z,36.30
2019-04-04T10:42:30.311Z,36.30
2019-04-04T10:45:07.498Z,36.80
2019-04-04T10:47:50.945Z,36.30
2019-04-04T10:50:23.597Z,36.30
2019-04-04T10:52:55.899Z,36.20
2019-04-04T10:55:36.560Z,36.20
2019-04-04T10:58:11.978Z,35.90
2019-04-04T11:00:48.323Z,34.90
2019-04-04T11:03:25.329Z,35.10
2019-04-04T11:05:57.633Z,35.30
2019-04-04T11:08:31.362Z,35.70
2019-04-04T11:11:07.910Z,36.00
2019-04-04T11:13:40.940Z,35.40
2019-04-04T11:16:14.851Z,35.70
2019-04-04T11:18:48.737Z,35.90
2019-04-04T11:21:25.525Z,36.40
2019-04-04T11:23:57.713Z,35.70
2019-04-04T11:26:31.959Z,35.80
2019-04-04T11:29:02.970Z,35.70
2019-04-04T11:31:35.067Z,35.20
2019-04-04T11:34:07.755Z,35.00
2019-04-04T11:36:37.988Z,35.30
2019-04-04T11:39:12.522Z,34.90
2019-04-04T11:41:47.707Z,35.40
2019-04-04T11:44:20.299Z,35.50
2019-04-04T11:47:07.041Z,36.00
2019-04-04T11:49:47.015Z,35.90
2019-04-04T11:52:23.507Z,35.40
2019-04-04T11:54:57.393Z,35.30
2019-04-04T11:57:34.620Z,35.20
2019-04-04T12:00:08.851Z,34.90
2019-04-04T12:02:39.443Z,34.60
2019-04-04T12:05:16.584Z,34.20
2019-04-04T12:07:47.510Z,33.60
2019-04-04T12:10:21.585Z,32.20
2019-04-04T12:12:53.713Z,33.00
2019-04-04T12:15:25.869Z,32.80
2019-04-04T12:17:55.965Z,32.80
2019-04-04T12:20:30.845Z,31.80
2019-04-04T12:23:03.114Z,31.50
2019-04-04T12:25:32.947Z,31.40
2019-04-04T12:28:05.838Z,31.40
2019-04-04T12:30:42.375Z,30.80
2019-04-04T12:33:12.502Z,30.00
2019-04-04T12:35:56.644Z,30.20
2019-04-04T12:38:35.986Z,30.10
2019-04-04T12:41:15.354Z,29.90
2019-04-04T12:43:53.094Z,30.60
2019-04-04T12:46:42.707Z,30.30
2019-04-04T12:49:12.705Z,30.10
2019-04-04T12:54:30.348Z,30.40
2019-04-04T12:57:04.592Z,30.00
2019-04-04T12:59:36.510Z,29.50
2019-04-04T13:02:12.071Z,29.20
2019-04-04T13:04:44.159Z,29.30
2019-04-04T13:07:18.775Z,29.50
2019-04-04T13:12:33.398Z,29.10
2019-04-04T13:15:04.797Z,28.80
2019-04-04T13:17:44.178Z,28.60
2019-04-04T13:20:16.485Z,28.30
2019-04-04T13:22:53.535Z,28.00
2019-04-04T13:25:24.575Z,27.90
2019-04-04T13:28:09.399Z,27.90
2019-04-04T13:33:45.006Z,28.20
2019-04-04T13:36:17.776Z,28.70
2019-04-04T13:38:47.635Z,29.30
2019-04-04T13:41:24.233Z,29.20
2019-04-04T13:43:56.600Z,28.50
2019-04-04T13:46:30.696Z,28.70
2019-04-04T13:49:07.205Z,28.70
2019-04-04T13:51:37.158Z,29.00
2019-04-04T13:54:11.385Z,28.90
2019-04-04T14:02:24.968Z,28.50
2019-04-04T14:08:15.236Z,28.60
2019-04-04T14:10:58.468Z,29.20
2019-04-04T14:13:30.168Z,29.10
2019-04-04T14:16:01.859Z,29.30
2019-04-04T14:18:45.663Z,29.70
2019-04-04T14:21:22.534Z,29.60
2019-04-04T14:23:56.947Z,30.00
2019-04-04T14:26:45.926Z,29.70
2019-04-04T14:32:17.338Z,29.40
2019-04-04T14:34:50.326Z,29.60
2019-04-04T14:37:29.389Z,29.50
2019-04-04T14:40:00.337Z,29.80
2019-04-04T14:45:11.504Z,30.20
2019-04-04T14:47:48.571Z,30.00
2019-04-04T14:50:24.396Z,29.40
2019-04-04T14:52:57.072Z,29.40
2019-04-04T14:55:30.471Z,29.80
2019-04-04T14:58:03.687Z,29.80
2019-04-04T15:00:36.881Z,30.20
2019-04-04T15:03:07.316Z,30.40
2019-04-04T15:05:46.263Z,30.20
2019-04-04T15:08:20.725Z,30.00
2019-04-04T15:10:53.196Z,30.10
2019-04-04T15:13:38.336Z,29.90
2019-04-04T15:16:19.956Z,30.00
2019-04-04T15:18:54.234Z,30.40
2019-04-04T15:21:25.122Z,30.50
2019-04-04T15:23:55.706Z,30.40
2019-04-04T15:26:27.820Z,31.10
2019-04-04T15:29:24.439Z,31.50
2019-04-04T15:31:57.420Z,31.90
2019-04-04T15:34:28.010Z,32.30
2019-04-04T15:37:06.346Z,32.90
2019-04-04T15:39:42.560Z,32.70
2019-04-04T15:42:16.713Z,32.80
2019-04-04T15:44:51.877Z,32.90
2019-04-04T15:47:26.000Z,33.70
2019-04-04T15:50:02.333Z,34.30
2019-04-04T15:52:37.002Z,34.70
2019-04-04T15:55:11.215Z,34.90
2019-04-04T15:57:44.649Z,35.10
2019-04-04T16:00:17.778Z,35.70
2019-04-04T16:02:49.599Z,36.30
2019-04-04T16:05:27.337Z,37.00
2019-04-04T16:08:04.764Z,36.90
2019-04-04T16:10:34.452Z,37.50
2019-04-04T16:13:07.794Z,38.10
2019-04-04T16:15:41.744Z,38.90
2019-04-04T16:18:20.489Z,39.60
2019-04-04T16:20:52.540Z,40.50
2019-04-04T16:23:23.773Z,41.30
2019-04-04T16:25:53.911Z,42.20
2019-04-04T16:28:26.996Z,42.70
2019-04-04T16:31:00.703Z,43.20
2019-04-04T16:33:31.893Z,43.60
2019-04-04T16:36:08.065Z,44.00
2019-04-04T16:38:43.920Z,44.50
2019-04-04T16:41:15.665Z,44.90
2019-04-04T16:43:49.450Z,45.40
2019-04-04T16:46:27.409Z,45.70
2019-04-04T16:49:00.418Z,46.20
2019-04-04T16:51:36.369Z,46.50
2019-04-04T16:54:07.112Z,47.40
2019-04-04T16:59:33.560Z,47.50
2019-04-04T17:02:03.843Z,47.80
2019-04-04T17:04:35.279Z,48.00
2019-04-04T17:07:13.239Z,48.20
2019-04-04T17:09:47.050Z,48.40
2019-04-04T17:12:16.642Z,48.70
2019-04-04T17:14:47.859Z,48.90
2019-04-04T17:17:19.393Z,49.30
2019-04-04T17:19:51.368Z,49.40
2019-04-04T17:22:29.120Z,49.70
2019-04-04T17:25:06.587Z,49.90
2019-04-04T17:30:33.594Z,50.50
2019-04-04T17:33:04.984Z,50.70
2019-04-04T17:35:40.860Z,50.90
2019-04-04T17:38:12.187Z,50.90
2019-04-04T17:40:46.620Z,51.20
2019-04-04T17:43:18.902Z,51.50
2019-04-04T17:46:01.040Z,51.70
2019-04-04T17:48:54.024Z,52.10
2019-04-04T17:51:31.034Z,52.30
2019-04-04T17:54:06.001Z,52.50
2019-04-04T17:56:38.814Z,52.80
2019-04-04T17:59:10.346Z,52.90
2019-04-04T18:01:42.919Z,53.20
2019-04-04T18:04:13.875Z,53.50
2019-04-04T18:06:48.114Z,53.70
2019-04-04T18:09:17.912Z,53.90
2019-04-04T18:11:51.488Z,54.10
2019-04-04T18:14:22.256Z,54.20
2019-04-04T18:16:55.102Z,54.30
2019-04-04T18:19:26.146Z,54.30
2019-04-04T18:22:01.061Z,54.50
2019-04-04T18:24:40.437Z,54.70
2019-04-04T18:27:14.387Z,54.70
2019-04-04T18:29:45.247Z,54.70
2019-04-04T18:32:28.706Z,54.80
2019-04-04T18:35:00.051Z,54.90
2019-04-04T18:37:33.462Z,55.00
2019-04-04T18:40:12.726Z,55.10
2019-04-04T18:42:53.015Z,55.30
2019-04-04T18:45:20.824Z,55.10
2019-04-04T18:47:52.403Z,55.60
2019-04-04T18:50:36.166Z,55.80
2019-04-04T18:53:10.578Z,55.90
2019-04-04T18:55:48.525Z,55.90
2019-04-04T18:58:21.113Z,55.80
2019-04-04T19:00:55.812Z,55.90
2019-04-04T19:03:29.737Z,55.90
2019-04-04T19:06:06.669Z,55.70
2019-04-04T19:08:43.075Z,55.40
2019-04-04T19:11:17.066Z,55.40
2019-04-04T19:13:47.015Z,55.00
2019-04-04T19:16:18.418Z,54.90
2019-04-04T19:18:50.822Z,54.70
2019-04-04T19:24:48.784Z,54.60
2019-04-04T19:27:19.384Z,54.60
2019-04-04T19:29:57.353Z,54.50
2019-04-04T19:32:31.031Z,54.40
2019-04-04T19:35:07.618Z,54.50
2019-04-04T19:37:42.820Z,54.60
2019-04-04T19:40:25.272Z,54.70
2019-04-04T19:43:01.685Z,54.80
2019-04-04T19:45:43.625Z,54.80
2019-04-04T19:48:20.495Z,55.00
2019-04-04T19:51:01.499Z,55.00
2019-04-04T19:56:40.050Z,54.50
2019-04-04T19:59:15.943Z,54.40
2019-04-04T20:10:24.596Z,54.40
2019-04-04T20:12:57.024Z,54.40
2019-04-04T20:15:31.886Z,55.10
2019-04-04T20:18:27.669Z,54.40
2019-04-04T20:21:05.680Z,54.60
2019-04-04T20:23:38.545Z,54.40
2019-04-04T20:26:13.248Z,54.40
2019-04-04T20:28:45.742Z,54.50
2019-04-04T20:31:17.285Z,54.70
2019-04-04T20:34:00.554Z,54.80
2019-04-04T20:36:21.209Z,54.80
2019-04-04T20:38:56.017Z,54.80
2019-04-04T20:41:33.141Z,55.70
2019-04-04T20:44:15.141Z,55.80
2019-04-04T20:46:46.131Z,55.70
2019-04-04T20:49:25.503Z,55.90
2019-04-04T20:51:57.451Z,55.60
2019-04-04T20:54:27.885Z,55.50
2019-04-04T20:57:01.417Z,55.60
2019-04-04T20:59:32.928Z,55.70
2019-04-04T21:02:15.356Z,55.80
2019-04-04T21:04:47.068Z,55.90
2019-04-04T21:07:20.859Z,55.90
2019-04-04T21:09:54.171Z,56.10
2019-04-04T21:12:28.562Z,56.10
2019-04-04T21:14:58.499Z,56.30
2019-04-04T21:17:42.096Z,56.30
2019-04-04T21:20:15.303Z,56.30
2019-04-04T21:22:47.565Z,56.40
2019-04-04T21:25:19.381Z,56.70
2019-04-04T21:27:50.527Z,56.70
2019-04-04T21:30:22.939Z,56.60
2019-04-04T21:32:54.727Z,56.60
2019-04-04T21:35:24.642Z,56.90
2019-04-04T21:37:56.071Z,56.80
2019-04-04T21:40:30.213Z,56.90
2019-04-04T21:43:05.450Z,57.10
2019-04-04T21:45:40.312Z,57.10
2019-04-04T21:48:14.209Z,57.20
2019-04-04T21:50:47.469Z,57.20
2019-04-04T21:53:19.068Z,57.40
2019-04-04T21:55:51.161Z,57.40
2019-04-04T21:58:24.121Z,57.50
2019-04-04T22:00:55.211Z,57.60
2019-04-04T22:03:31.506Z,57.70
2019-04-04T22:06:02.458Z,57.70
2019-04-04T22:08:37.847Z,57.70
2019-04-04T22:11:09.363Z,57.70
2019-04-04T22:13:40.580Z,57.80
2019-04-04T22:16:13.581Z,57.90
2019-04-04T22:18:45.051Z,57.90
2019-04-04T22:21:17.481Z,57.80
2019-04-04T22:23:48.518Z,57.80
2019-04-04T22:26:22.944Z,57.80
2019-04-04T22:28:56.494Z,57.80
2019-04-04T22:31:32.499Z,57.70
2019-04-04T22:34:03.784Z,57.90
2019-04-04T22:36:34.631Z,58.10
2019-04-04T22:39:07.873Z,58.40
2019-04-04T22:41:46.106Z,58.10
2019-04-04T22:44:34.082Z,58.80
2019-04-04T22:46:54.718Z,58.10
2019-04-04T22:49:25.763Z,58.00
2019-04-04T22:51:57.197Z,58.00
2019-04-04T22:54:28.504Z,58.10
2019-04-04T22:57:00.276Z,58.10
2019-04-04T22:59:30.149Z,58.20
2019-04-04T23:02:01.433Z,58.40
2019-04-04T23:04:34.647Z,58.30
2019-04-04T23:07:06.724Z,58.30
2019-04-04T23:09:38.861Z,58.40
2019-04-04T23:12:08.984Z,58.50
2019-04-04T23:14:48.024Z,58.60
2019-04-04T23:17:13.527Z,58.80
2019-04-04T23:19:47.390Z,58.90
2019-04-04T23:22:17.245Z,58.90
2019-04-04T23:24:50.139Z,59.00
2019-04-04T23:27:21.291Z,59.00
2019-04-04T23:29:54.032Z,59.10
2019-04-04T23:32:26.039Z,59.20
2019-04-04T23:34:55.860Z,59.30
2019-04-04T23:37:29.964Z,59.40
2019-04-04T23:40:01.456Z,59.40
2019-04-04T23:42:32.269Z,59.60
2019-04-04T23:45:04.907Z,59.70
2019-04-04T23:47:42.629Z,59.70
2019-04-04T23:50:08.620Z,60.70
2019-04-04T23:52:40.901Z,60.00
2019-04-04T23:55:14.391Z,60.10
2019-04-04T23:57:46.170Z,60.30
